Time;durP1;ratioP1;P1;durP2;ratioP2;P2;SDS_P1;SDS_P2;PMS_P1;PMS_P2;Temp;Humidity;BMP_temperature;BMP_pressure;BME280_temperature;BME280_humidity;BME280_pressure;Samples;Min_cycle;Max_cycle;Signal;HPM_P1;HPM_P2
2021/11/22 00:00:51;;;;;;;10.00;2.65;;;20.40;90.50;;;;;;5068470;28;20463;-53
2021/11/22 00:03:20;;;;;;;7.40;2.17;;;20.40;90.50;;;;;;5071020;28;20378;-55
2021/11/22 00:05:48;;;;;;;9.50;3.03;;;20.40;90.50;;;;;;5066734;28;20020;-56
2021/11/22 00:08:15;;;;;;;11.48;3.05;;;20.50;90.50;;;;;;5070561;28;20025;-55
2021/11/22 00:10:43;;;;;;;11.05;2.72;;;20.40;90.50;;;;;;5067775;28;20020;-54
2021/11/22 00:13:11;;;;;;;9.13;3.25;;;20.50;90.40;;;;;;5070824;28;20028;-52
2021/11/22 00:15:38;;;;;;;16.35;2.70;;;20.40;90.40;;;;;;5070627;28;20021;-58
2021/11/22 00:18:06;;;;;;;13.05;3.60;;;20.50;90.50;;;;;;5070075;28;20020;-53
2021/11/22 00:20:33;;;;;;;11.85;3.47;;;20.50;90.30;;;;;;5067606;28;20798;-55
2021/11/22 00:23:01;;;;;;;6.55;2.70;;;20.50;90.50;;;;;;5071142;28;20387;-58
2021/11/22 00:25:29;;;;;;;11.90;2.70;;;20.50;90.40;;;;;;5070930;28;20031;-51
2021/11/22 00:27:56;;;;;;;7.90;2.50;;;20.50;90.40;;;;;;5070092;28;20040;-52
2021/11/22 00:30:24;;;;;;;11.48;3.05;;;20.50;90.40;;;;;;5067061;28;20025;-51
2021/11/22 00:32:51;;;;;;;8.95;2.40;;;20.60;90.30;;;;;;5070518;28;20367;-53
2021/11/22 00:35:19;;;;;;;10.27;2.47;;;20.60;90.20;;;;;;5069954;28;20362;-56
2021/11/22 00:37:51;;;;;;;9.35;2.90;;;20.60;90.40;;;;;;5071535;28;20631;-57
2021/11/22 00:40:19;;;;;;;12.68;3.08;;;20.60;90.30;;;;;;5068285;28;20028;-57
2021/11/22 00:42:48;;;;;;;6.50;2.28;;;20.60;90.40;;;;;;5071568;28;20040;-57
2021/11/22 00:45:17;;;;;;;11.52;3.50;;;20.60;90.60;;;;;;5070635;28;20024;-58
2021/11/22 00:47:44;;;;;;;12.25;3.20;;;20.60;90.30;;;;;;5070266;28;20077;-56
2021/11/22 00:50:12;;;;;;;11.13;2.92;;;20.60;90.30;;;;;;5067201;28;20032;-58
2021/11/22 00:52:40;;;;;;;12.73;3.42;;;20.60;90.40;;;;;;5069514;28;20098;-54
2021/11/22 00:55:08;;;;;;;16.38;3.80;;;20.60;90.20;;;;;;5066129;28;20020;-51
2021/11/22 00:57:36;;;;;;;39.58;5.45;;;20.60;90.30;;;;;;5068793;28;20025;-52
2021/11/22 01:00:07;;;;;;;14.75;3.15;;;20.70;90.50;;;;;;5065856;28;20040;-52
2021/11/22 01:02:35;;;;;;;18.92;3.63;;;20.80;90.10;;;;;;5070005;28;20036;-56
2021/11/22 01:05:04;;;;;;;26.27;3.28;;;20.80;90.20;;;;;;5070139;28;20023;-57
2021/11/22 01:07:32;;;;;;;13.93;3.60;;;20.80;90.20;;;;;;5069602;28;20034;-50
2021/11/22 01:10:00;;;;;;;15.98;2.97;;;20.80;90.00;;;;;;5066738;28;20017;-54
2021/11/22 01:12:28;;;;;;;25.67;4.43;;;20.80;90.10;;;;;;5070226;28;20039;-57
2021/11/22 01:14:58;;;;;;;19.65;3.05;;;20.80;90.10;;;;;;5070112;28;20111;-54
2021/11/22 01:17:26;;;;;;;22.77;3.83;;;20.80;90.20;;;;;;5067762;28;20071;-55
2021/11/22 01:19:54;;;;;;;16.48;3.33;;;20.80;90.30;;;;;;5067083;28;20028;-55
2021/11/22 01:22:24;;;;;;;26.25;3.33;;;20.80;90.00;;;;;;5070859;28;20025;-55
2021/11/22 01:24:52;;;;;;;15.57;3.78;;;20.80;90.10;;;;;;5072878;28;20494;-60
2021/11/22 01:27:20;;;;;;;17.13;3.67;;;20.80;90.20;;;;;;5072624;28;20119;-57
2021/11/22 01:29:47;;;;;;;12.38;3.22;;;20.80;90.30;;;;;;5072660;28;20036;-56
2021/11/22 01:32:14;;;;;;;16.65;3.65;;;20.80;90.30;;;;;;5072230;28;20043;-57
2021/11/22 01:34:42;;;;;;;19.98;3.47;;;20.80;90.40;;;;;;5071441;28;20467;-56
2021/11/22 01:37:09;;;;;;;24.60;3.33;;;20.80;90.40;;;;;;5072297;28;20033;-58
2021/11/22 01:39:37;;;;;;;56.13;9.95;;;20.80;90.40;;;;;;5072462;28;20463;-57
2021/11/22 01:42:05;;;;;;;22.63;4.20;;;20.80;90.60;;;;;;5072249;28;20082;-60
2021/11/22 01:44:32;;;;;;;14.30;3.20;;;20.90;90.30;;;;;;5072249;28;20031;-63
2021/11/22 01:47:00;;;;;;;19.40;3.38;;;20.90;90.30;;;;;;5072222;28;20031;-58
2021/11/22 01:49:27;;;;;;;11.55;3.17;;;20.90;90.10;;;;;;5071923;28;20107;-57
2021/11/22 01:51:55;;;;;;;16.50;3.53;;;20.90;90.20;;;;;;5072346;28;20024;-55
2021/11/22 01:54:23;;;;;;;13.32;3.05;;;21.00;90.20;;;;;;5070843;28;20060;-57
2021/11/22 01:56:50;;;;;;;24.98;4.00;;;21.00;90.40;;;;;;5072298;28;20020;-62
2021/11/22 01:59:18;;;;;;;24.60;3.78;;;21.00;90.10;;;;;;5072036;28;20025;-56
2021/11/22 02:01:48;;;;;;;12.68;3.53;;;21.00;90.00;;;;;;5072334;28;20033;-54
2021/11/22 02:04:16;;;;;;;13.52;3.17;;;21.00;89.10;;;;;;5072020;28;20044;-59
2021/11/22 02:06:44;;;;;;;7.75;2.63;;;21.00;89.80;;;;;;5072097;28;20438;-57
2021/11/22 02:09:13;;;;;;;10.40;3.22;;;21.00;89.80;;;;;;5065218;28;20560;-59
2021/11/22 02:11:44;;;;;;;11.38;3.03;;;21.00;89.90;;;;;;5069473;28;20115;-53
2021/11/22 02:14:11;;;;;;;7.68;2.50;;;21.00;89.90;;;;;;5068274;28;20027;-51
2021/11/22 02:16:39;;;;;;;18.02;3.00;;;21.00;89.70;;;;;;5069449;28;20060;-52
2021/11/22 02:19:06;;;;;;;10.02;2.50;;;21.00;90.10;;;;;;5068894;28;20523;-51
2021/11/22 02:21:34;;;;;;;22.23;3.38;;;21.00;90.00;;;;;;5069215;28;20024;-54
2021/11/22 02:24:01;;;;;;;17.92;3.08;;;21.00;90.10;;;;;;5067249;28;20025;-52
2021/11/22 02:26:30;;;;;;;9.32;2.90;;;20.90;90.00;;;;;;5069049;28;20032;-51
2021/11/22 02:28:57;;;;;;;17.85;3.17;;;20.90;90.20;;;;;;5066840;28;20031;-49
2021/11/22 02:31:24;;;;;;;9.13;2.90;;;20.90;90.20;;;;;;5073030;28;20028;-56
2021/11/22 02:33:55;;;;;;;8.20;2.83;;;20.90;90.10;;;;;;5070138;28;20090;-59
2021/11/22 02:36:23;;;;;;;11.40;3.42;;;20.90;90.30;;;;;;5072911;28;21381;-52
2021/11/22 02:38:51;;;;;;;11.23;3.22;;;20.90;90.20;;;;;;5072760;28;20032;-57
2021/11/22 02:41:18;;;;;;;11.77;2.85;;;20.90;90.30;;;;;;5070943;28;20040;-53
2021/11/22 02:43:47;;;;;;;12.70;2.65;;;20.90;90.40;;;;;;5068231;28;20028;-54
2021/11/22 02:46:15;;;;;;;7.63;2.63;;;20.90;90.30;;;;;;5072245;28;20028;-50
2021/11/22 02:48:42;;;;;;;10.85;3.40;;;21.00;90.40;;;;;;5071893;28;20017;-55
2021/11/22 02:51:10;;;;;;;9.02;2.75;;;21.00;90.40;;;;;;5070610;28;20108;-47
2021/11/22 02:53:38;;;;;;;13.57;3.28;;;21.00;90.20;;;;;;5069152;28;20546;-50
2021/11/22 02:56:09;;;;;;;5.97;2.78;;;21.00;90.10;;;;;;5067504;28;20067;-51
2021/11/22 02:58:39;;;;;;;9.60;2.95;;;21.10;90.10;;;;;;5071621;28;20028;-52
2021/11/22 03:01:09;;;;;;;10.38;3.13;;;21.10;90.10;;;;;;5071874;28;20414;-56
2021/11/22 03:03:37;;;;;;;10.50;3.22;;;21.10;90.10;;;;;;5069519;28;20328;-51
2021/11/22 03:06:05;;;;;;;11.07;2.70;;;21.10;89.80;;;;;;5072043;28;20020;-52
2021/11/22 03:08:33;;;;;;;11.10;2.35;;;21.10;90.00;;;;;;5071861;28;20089;-56
2021/11/22 03:11:00;;;;;;;12.40;2.83;;;21.20;89.80;;;;;;5072147;28;20021;-56
2021/11/22 03:13:28;;;;;;;6.90;2.47;;;21.20;89.80;;;;;;5070822;28;20032;-56
2021/11/22 03:15:55;;;;;;;9.05;2.75;;;21.20;89.70;;;;;;5067959;28;20417;-56
2021/11/22 03:18:23;;;;;;;9.07;2.65;;;21.20;89.70;;;;;;5072034;28;20032;-52
2021/11/22 03:20:50;;;;;;;9.80;2.72;;;21.30;89.50;;;;;;5072210;28;20032;-54
2021/11/22 03:23:18;;;;;;;9.13;3.25;;;21.30;89.20;;;;;;5071735;28;20051;-56
2021/11/22 03:25:45;;;;;;;10.48;3.22;;;21.30;89.00;;;;;;5068025;28;20108;-54
2021/11/22 03:28:17;;;;;;;9.13;2.70;;;21.40;89.40;;;;;;5070687;28;20041;-54
2021/11/22 03:30:45;;;;;;;9.15;3.15;;;21.40;89.10;;;;;;5071681;28;20032;-55
2021/11/22 03:33:13;;;;;;;10.80;2.70;;;21.50;88.60;;;;;;5070632;28;20067;-51
2021/11/22 03:35:42;;;;;;;9.38;2.33;;;21.60;88.20;;;;;;5068055;28;20020;-51
2021/11/22 03:38:12;;;;;;;9.25;2.92;;;21.70;87.90;;;;;;5067956;28;20045;-51
2021/11/22 03:40:42;;;;;;;9.73;2.60;;;21.70;88.00;;;;;;5068863;28;20028;-54
2021/11/22 03:45:40;;;;;;;6.80;2.20;;;21.80;87.40;;;;;;5068011;28;20096;-52
2021/11/22 03:48:08;;;;;;;8.55;2.78;;;21.90;87.40;;;;;;5069848;28;20483;-49
2021/11/22 03:50:36;;;;;;;11.90;2.55;;;22.00;87.10;;;;;;5071114;28;20044;-53
2021/11/22 03:53:03;;;;;;;15.05;3.35;;;22.00;86.40;;;;;;5070761;28;20044;-50
2021/11/22 03:55:31;;;;;;;12.82;2.80;;;22.10;84.50;;;;;;5067629;28;20380;-49
2021/11/22 03:57:58;;;;;;;14.60;2.90;;;22.20;85.80;;;;;;5069918;28;20090;-53
2021/11/22 04:00:27;;;;;;;10.85;2.63;;;22.10;86.10;;;;;;5070148;28;20028;-49
2021/11/22 04:02:57;;;;;;;16.38;3.15;;;22.20;86.40;;;;;;5070950;28;20102;-50
2021/11/22 04:05:25;;;;;;;10.30;2.60;;;22.20;85.80;;;;;;5067237;28;20032;-50
2021/11/22 04:07:52;;;;;;;7.75;2.22;;;22.20;85.50;;;;;;5070699;28;20113;-53
2021/11/22 04:10:20;;;;;;;6.78;2.10;;;22.20;86.00;;;;;;5071432;28;20376;-49
2021/11/22 04:12:47;;;;;;;6.25;2.47;;;22.20;86.00;;;;;;5068915;28;20523;-52
2021/11/22 04:15:15;;;;;;;9.02;2.30;;;22.30;86.10;;;;;;5066371;28;20024;-51
2021/11/22 04:17:43;;;;;;;7.43;2.55;;;22.30;85.30;;;;;;5071023;28;20040;-49
2021/11/22 04:20:10;;;;;;;5.50;2.50;;;22.30;85.50;;;;;;5070832;28;20048;-57
2021/11/22 04:22:38;;;;;;;7.90;2.38;;;22.30;85.70;;;;;;5070397;28;20028;-55
2021/11/22 04:25:08;;;;;;;16.08;2.50;;;22.30;85.20;;;;;;5068211;28;20059;-54
2021/11/22 04:27:36;;;;;;;8.60;2.30;;;22.40;84.80;;;;;;5070762;28;20036;-56
2021/11/22 04:30:06;;;;;;;7.07;2.10;;;22.40;85.40;;;;;;5069596;28;20027;-55
2021/11/22 04:32:34;;;;;;;9.90;3.70;;;22.30;84.90;;;;;;5071777;28;20028;-52
2021/11/22 04:35:03;;;;;;;9.32;2.60;;;22.30;85.10;;;;;;5072377;28;20020;-60
2021/11/22 04:37:31;;;;;;;11.23;2.17;;;22.40;85.50;;;;;;5072070;28;20078;-58
2021/11/22 04:39:58;;;;;;;10.50;1.92;;;22.40;85.40;;;;;;5072171;28;20021;-55
2021/11/22 04:42:26;;;;;;;7.03;2.13;;;22.40;84.70;;;;;;5072487;28;20032;-55
2021/11/22 04:44:54;;;;;;;5.93;2.20;;;22.40;84.80;;;;;;5073048;28;20124;-58
2021/11/22 04:47:21;;;;;;;6.80;2.25;;;22.40;85.00;;;;;;5073241;28;20035;-57
2021/11/22 04:49:50;;;;;;;13.10;2.90;;;22.40;85.10;;;;;;5066706;28;20130;-52
2021/11/22 04:52:18;;;;;;;7.88;2.05;;;22.40;84.10;;;;;;5068599;28;21581;-49
2021/11/22 04:54:46;;;;;;;7.38;2.35;;;22.40;85.40;;;;;;5053010;28;20032;-57
2021/11/22 04:57:15;;;;;;;8.85;2.28;;;22.30;85.40;;;;;;5068014;28;20035;-51
2021/11/22 04:59:43;;;;;;;10.63;3.35;;;22.30;85.70;;;;;;5070128;28;20371;-47
2021/11/22 05:02:11;;;;;;;8.43;2.83;;;22.30;85.20;;;;;;5068044;28;20040;-48
2021/11/22 05:04:39;;;;;;;8.15;2.05;;;22.20;85.60;;;;;;5069521;28;20025;-51
2021/11/22 05:07:08;;;;;;;10.38;2.83;;;22.20;86.10;;;;;;5070006;28;20038;-53
2021/11/22 05:09:36;;;;;;;11.25;2.55;;;22.20;86.30;;;;;;5068676;28;20474;-53
2021/11/22 05:12:04;;;;;;;8.98;2.40;;;22.10;86.00;;;;;;5068617;28;20032;-54
2021/11/22 05:14:31;;;;;;;7.80;2.20;;;22.10;86.50;;;;;;5068796;28;20012;-55
2021/11/22 05:16:59;;;;;;;7.03;2.45;;;22.10;86.90;;;;;;5070169;28;20025;-55
2021/11/22 05:19:30;;;;;;;10.63;2.83;;;22.00;87.10;;;;;;5070502;28;20032;-55
2021/11/22 05:22:02;;;;;;;5.27;2.13;;;22.00;87.40;;;;;;5068639;28;20055;-50
2021/11/22 05:24:29;;;;;;;;;;;22.00;87.40;;;;;;5069128;28;20042;-56
2021/11/22 05:26:59;;;;;;;5.68;1.90;;;22.00;87.90;;;;;;5069227;28;19904;-50
2021/11/22 05:29:26;;;;;;;6.97;2.10;;;21.90;87.90;;;;;;5069484;28;20024;-52
2021/11/22 05:31:54;;;;;;;9.20;2.50;;;21.90;88.50;;;;;;5069833;28;20025;-49
2021/11/22 05:34:21;;;;;;;6.85;2.25;;;21.90;88.50;;;;;;5067208;28;20391;-52
2021/11/22 05:37:15;;;;;;;7.07;2.22;;;21.90;88.90;;;;;;5070083;28;20472;-51
2021/11/22 05:39:44;;;;;;;5.60;2.03;;;21.80;88.70;;;;;;5066243;28;20063;-49
2021/11/22 05:42:12;;;;;;;5.18;1.75;;;21.80;88.90;;;;;;5066592;28;20069;-52
2021/11/22 05:44:39;;;;;;;7.90;2.00;;;21.80;88.80;;;;;;5069132;28;20016;-49
2021/11/22 05:47:10;;;;;;;7.90;2.10;;;21.80;88.70;;;;;;5069809;28;20031;-52
2021/11/22 05:49:38;;;;;;;6.82;2.40;;;21.70;89.30;;;;;;5069212;28;20023;-49
2021/11/22 05:52:08;;;;;;;11.77;2.30;;;21.70;89.50;;;;;;5065373;28;20032;-55
2021/11/22 05:54:45;;;;;;;11.57;2.83;;;21.70;89.60;;;;;;5068944;28;20112;-57
2021/11/22 05:57:12;;;;;;;9.13;2.25;;;21.70;89.50;;;;;;5070013;28;20066;-55
2021/11/22 05:59:40;;;;;;;7.32;2.08;;;21.60;89.40;;;;;;5068395;28;20021;-51
2021/11/22 06:02:07;;;;;;;8.75;2.00;;;21.60;89.70;;;;;;5066413;28;20487;-51
2021/11/22 06:04:35;;;;;;;3.88;1.85;;;21.60;89.60;;;;;;5071193;28;20453;-54
2021/11/22 06:07:04;;;;;;;11.70;3.15;;;21.60;89.80;;;;;;5071404;28;20430;-55
2021/11/22 06:09:31;;;;;;;5.55;2.17;;;21.60;90.10;;;;;;5073191;28;20104;-58
2021/11/22 06:11:58;;;;;;;8.18;2.42;;;21.60;89.90;;;;;;5072182;28;20016;-50
2021/11/22 06:14:26;;;;;;;5.38;2.03;;;21.50;90.00;;;;;;5070483;28;20104;-51
2021/11/22 06:17:00;;;;;;;9.73;2.70;;;21.50;90.00;;;;;;5073017;28;20399;-49
2021/11/22 06:19:28;;;;;;;8.68;2.13;;;21.50;90.00;;;;;;5073162;28;20035;-49
2021/11/22 06:21:56;;;;;;;8.13;2.60;;;21.50;90.00;;;;;;5070038;28;20086;-56
2021/11/22 06:24:24;;;;;;;7.80;2.65;;;21.50;90.10;;;;;;5070287;28;20032;-55
2021/11/22 06:26:54;;;;;;;10.02;3.10;;;21.50;90.10;;;;;;5074653;28;20028;-57
2021/11/22 06:29:23;;;;;;;16.38;4.10;;;21.40;89.50;;;;;;5071428;28;20024;-55
2021/11/22 06:31:53;;;;;;;19.90;6.15;;;21.10;89.20;;;;;;5075321;28;20028;-59
2021/11/22 06:34:21;;;;;;;16.20;6.32;;;21.00;89.30;;;;;;5075565;28;20429;-54
2021/11/22 06:36:48;;;;;;;19.77;7.82;;;20.90;90.40;;;;;;5075236;28;20044;-58
2021/11/22 06:39:16;;;;;;;19.15;5.53;;;20.80;90.70;;;;;;5074379;28;20100;-60
2021/11/22 06:41:43;;;;;;;32.17;16.48;;;20.60;90.10;;;;;;5075027;28;20028;-60
2021/11/22 06:44:11;;;;;;;28.85;14.52;;;20.80;90.50;;;;;;5074821;28;20843;-51
2021/11/22 06:46:38;;;;;;;36.20;22.48;;;20.70;88.80;;;;;;5075158;28;20073;-56
2021/11/22 06:49:06;;;;;;;47.20;36.50;;;20.80;89.50;;;;;;5074894;28;20040;-55
2021/11/22 06:51:33;;;;;;;53.75;37.53;;;20.60;90.70;;;;;;5075499;28;20028;-61
2021/11/22 06:54:00;;;;;;;28.35;10.32;;;20.60;89.10;;;;;;5073899;28;20044;-58
2021/11/22 06:56:28;;;;;;;23.70;14.60;;;20.50;89.20;;;;;;5073516;28;20024;-59
2021/11/22 06:58:55;;;;;;;24.48;20.10;;;20.60;90.30;;;;;;5074679;28;20101;-59
2021/11/22 07:01:23;;;;;;;21.70;5.55;;;20.70;90.50;;;;;;5074297;28;20483;-53
2021/11/22 07:03:50;;;;;;;35.38;24.30;;;20.50;89.80;;;;;;5074975;28;20029;-59
2021/11/22 07:06:18;;;;;;;26.27;11.52;;;20.70;89.60;;;;;;5075157;28;20028;-60
2021/11/22 07:08:45;;;;;;;25.95;18.52;;;20.60;91.10;;;;;;5075208;28;20032;-58
2021/11/22 07:11:13;;;;;;;19.35;7.70;;;20.50;91.30;;;;;;5075045;28;20055;-52
2021/11/22 07:13:41;;;;;;;16.75;7.00;;;20.60;91.20;;;;;;5073592;28;20059;-59
2021/11/22 07:16:08;;;;;;;25.48;7.20;;;20.50;90.30;;;;;;5074739;28;20063;-58
2021/11/22 07:18:36;;;;;;;32.63;16.08;;;20.50;91.10;;;;;;5074945;28;20070;-53
2021/11/22 07:21:03;;;;;;;27.70;7.93;;;20.50;91.20;;;;;;5074585;28;20025;-58
2021/11/22 07:23:31;;;;;;;24.00;6.47;;;20.50;90.30;;;;;;5074805;28;20536;-57
2021/11/22 07:25:58;;;;;;;22.70;9.25;;;20.50;90.60;;;;;;5073501;28;20509;-58
2021/11/22 07:28:26;;;;;;;27.77;14.80;;;20.50;90.10;;;;;;5074884;28;20104;-59
2021/11/22 07:30:54;;;;;;;45.53;31.23;;;20.70;90.40;;;;;;5074820;28;20024;-49
2021/11/22 07:33:22;;;;;;;40.17;22.20;;;20.80;91.20;;;;;;5067892;28;20449;-56
2021/11/22 07:35:50;;;;;;;45.70;27.23;;;20.90;90.80;;;;;;5069299;28;20036;-52
2021/11/22 07:38:19;;;;;;;41.95;26.17;;;21.00;90.80;;;;;;5071125;28;20028;-52
2021/11/22 07:40:46;;;;;;;43.88;29.60;;;21.10;90.20;;;;;;5074351;28;20107;-53
2021/11/22 07:43:17;;;;;;;39.03;22.40;;;21.20;90.50;;;;;;5074427;28;20493;-55
2021/11/22 07:45:45;;;;;;;39.17;24.25;;;21.20;90.20;;;;;;5074605;28;20029;-53
2021/11/22 07:48:14;;;;;;;44.05;26.48;;;21.20;90.20;;;;;;5072891;28;20449;-57
2021/11/22 07:50:42;;;;;;;43.88;23.77;;;21.20;90.00;;;;;;5074193;28;20039;-54
2021/11/22 07:53:10;;;;;;;39.30;22.42;;;21.20;90.50;;;;;;5073869;28;20048;-54
2021/11/22 07:55:37;;;;;;;39.53;20.25;;;21.20;90.50;;;;;;5074388;28;20050;-53
2021/11/22 07:58:05;;;;;;;52.25;24.42;;;21.20;90.30;;;;;;5072923;28;20020;-65
2021/11/22 08:00:32;;;;;;;59.83;30.98;;;21.30;90.40;;;;;;5075679;28;20032;-71
2021/11/22 08:03:00;;;;;;;83.00;43.70;;;21.30;90.40;;;;;;5075341;28;20032;-73
2021/11/22 08:05:30;;;;;;;70.72;34.90;;;21.30;90.20;;;;;;5074178;28;20414;-72
2021/11/22 08:07:58;;;;;;;85.97;44.85;;;21.30;90.50;;;;;;5075358;28;20036;-76
2021/11/22 08:10:34;;;;;;;83.57;39.55;;;21.30;90.60;;;;;;5075017;28;20102;-74
2021/11/22 08:13:05;;;;;;;64.63;26.95;;;21.20;90.70;;;;;;5075247;28;20071;-68
2021/11/22 08:15:35;;;;;;;57.22;26.13;;;21.20;90.30;;;;;;5074994;28;20036;-68
2021/11/22 08:18:07;;;;;;;61.63;24.90;;;21.10;90.50;;;;;;5074728;28;20029;-70
2021/11/22 08:20:35;;;;;;;51.30;21.25;;;21.10;90.90;;;;;;5074941;28;20529;-67
2021/11/22 08:23:03;;;;;;;43.03;14.25;;;21.10;90.50;;;;;;5074829;28;20048;-74
2021/11/22 08:25:33;;;;;;;53.83;18.90;;;21.00;90.90;;;;;;5074739;28;20039;-76
2021/11/22 08:28:00;;;;;;;35.30;13.50;;;21.00;91.20;;;;;;5073193;28;20035;-74
2021/11/22 08:30:30;;;;;;;44.35;13.38;;;20.90;91.60;;;;;;5074974;28;20070;-71
2021/11/22 08:33:01;;;;;;;37.17;13.85;;;21.00;92.10;;;;;;5075116;28;20020;-72
2021/11/22 08:35:31;;;;;;;41.80;14.20;;;21.00;92.30;;;;;;5073544;28;20070;-71
2021/11/22 08:38:00;;;;;;;33.65;11.07;;;21.10;92.90;;;;;;5075930;28;20063;-75
2021/11/22 08:40:28;;;;;;;33.88;10.27;;;21.10;92.20;;;;;;5075605;28;20021;-71
2021/11/22 08:42:56;;;;;;;34.10;10.18;;;21.10;92.80;;;;;;5073681;28;20501;-72
2021/11/22 08:45:25;;;;;;;24.48;8.50;;;21.10;92.80;;;;;;5075154;28;20115;-75
2021/11/22 08:47:54;;;;;;;29.98;7.32;;;21.10;92.90;;;;;;5075388;28;20021;-70
2021/11/22 08:50:22;;;;;;;27.55;6.72;;;21.00;91.80;;;;;;5075853;28;20320;-72
2021/11/22 08:52:50;;;;;;;21.92;6.35;;;21.00;92.40;;;;;;5074288;28;20391;-69
2021/11/22 08:55:19;;;;;;;26.20;6.95;;;21.00;92.40;;;;;;5076236;28;20467;-74
2021/11/22 08:57:48;;;;;;;23.67;7.30;;;21.00;92.60;;;;;;5069381;28;20028;-67
2021/11/22 09:00:21;;;;;;;24.38;6.57;;;21.00;92.80;;;;;;5067710;28;20046;-69
2021/11/22 09:02:48;;;;;;;24.75;5.65;;;21.00;92.40;;;;;;5049561;28;20048;-61
2021/11/22 09:05:16;;;;;;;28.50;6.03;;;20.90;91.50;;;;;;5068119;28;20086;-64
2021/11/22 09:07:43;;;;;;;28.67;7.22;;;20.90;93.00;;;;;;5067028;28;20032;-65
2021/11/22 09:10:11;;;;;;;28.08;5.35;;;20.90;92.90;;;;;;5065606;28;20249;-67
2021/11/22 09:12:39;;;;;;;25.13;5.68;;;20.90;92.90;;;;;;5068607;28;20028;-63
2021/11/22 09:15:07;;;;;;;23.52;5.63;;;20.80;92.50;;;;;;5070085;28;20516;-60
2021/11/22 09:17:34;;;;;;;25.83;5.50;;;20.80;92.00;;;;;;5073228;28;20588;-60
2021/11/22 09:20:02;;;;;;;20.77;4.15;;;20.80;93.00;;;;;;5064025;28;20056;-53
2021/11/22 09:22:29;;;;;;;27.15;5.07;;;20.80;92.60;;;;;;5067834;28;20071;-49
2021/11/22 09:24:57;;;;;;;38.45;6.20;;;20.80;92.50;;;;;;5065938;28;20032;-49
2021/11/22 09:27:24;;;;;;;24.55;5.53;;;20.90;92.50;;;;;;5068686;28;20074;-51
2021/11/22 09:29:52;;;;;;;23.33;4.88;;;20.90;92.30;;;;;;5069632;28;20029;-57
2021/11/22 09:32:19;;;;;;;21.00;5.70;;;20.90;92.20;;;;;;5067272;28;20060;-57
2021/11/22 09:34:48;;;;;;;26.23;5.50;;;20.90;92.10;;;;;;5066967;28;20094;-56
2021/11/22 09:37:16;;;;;;;20.85;4.63;;;20.90;92.00;;;;;;5070203;28;20020;-53
2021/11/22 09:39:44;;;;;;;20.50;4.32;;;20.90;91.90;;;;;;5069428;28;20028;-52
2021/11/22 09:42:13;;;;;;;20.38;5.00;;;20.90;91.90;;;;;;5068929;28;20109;-54
2021/11/22 09:44:40;;;;;;;18.17;5.70;;;20.90;91.90;;;;;;5067252;28;20069;-51
2021/11/22 09:47:08;;;;;;;17.27;5.07;;;20.90;91.90;;;;;;5069259;28;20029;-52
2021/11/22 09:49:36;;;;;;;18.75;5.30;;;20.90;91.90;;;;;;5069612;28;20063;-54
2021/11/22 09:52:04;;;;;;;16.00;4.20;;;20.80;91.80;;;;;;5069595;28;20029;-52
2021/11/22 09:54:32;;;;;;;18.38;4.85;;;20.80;91.80;;;;;;5066471;28;20170;-51
2021/11/22 09:56:59;;;;;;;19.38;6.07;;;20.90;91.90;;;;;;5069960;28;20029;-50
2021/11/22 09:59:27;;;;;;;17.90;4.95;;;20.80;91.80;;;;;;5069466;28;20056;-50
2021/11/22 10:01:56;;;;;;;15.75;4.63;;;20.80;91.70;;;;;;5069434;28;20033;-46
2021/11/22 10:04:30;;;;;;;20.25;4.82;;;20.80;91.80;;;;;;5067194;28;20048;-54
2021/11/22 10:07:00;;;;;;;20.73;5.47;;;20.80;91.80;;;;;;5069692;28;20100;-53
2021/11/22 10:09:40;;;;;;;20.80;4.82;;;20.80;91.80;;;;;;5069975;28;20372;-53
2021/11/22 10:12:10;;;;;;;18.15;4.82;;;20.80;91.80;;;;;;5068608;28;20129;-53
2021/11/22 10:14:49;;;;;;;15.02;4.28;;;20.80;91.80;;;;;;5066672;28;20029;-53
2021/11/22 10:17:27;;;;;;;19.40;4.90;;;20.80;91.80;;;;;;5070547;28;20040;-50
2021/11/22 10:20:11;;;;;;;15.48;4.68;;;20.80;91.80;;;;;;5070277;28;20025;-50
2021/11/22 10:22:49;;;;;;;13.32;3.97;;;20.80;91.70;;;;;;5067590;28;20040;-50
2021/11/22 10:25:30;;;;;;;17.23;5.30;;;20.80;91.70;;;;;;5066404;28;20027;-44
2021/11/22 10:28:17;;;;;;;16.67;5.07;;;20.80;91.60;;;;;;5066189;28;20052;-51
2021/11/22 10:30:52;;;;;;;14.02;4.15;;;20.70;91.60;;;;;;5067604;28;20265;-54
2021/11/22 10:33:23;;;;;;;18.67;5.07;;;20.70;91.60;;;;;;5066878;28;20066;-52
2021/11/22 10:35:53;;;;;;;20.00;5.85;;;20.80;91.60;;;;;;5069924;28;20070;-48
2021/11/22 10:38:40;;;;;;;13.85;4.13;;;20.80;91.60;;;;;;5070320;28;20356;-48
2021/11/22 10:41:30;;;;;;;14.00;4.25;;;20.80;91.60;;;;;;5068561;28;20468;-48
2021/11/22 10:44:12;;;;;;;17.73;4.90;;;20.70;91.60;;;;;;5066536;28;20043;-51
2021/11/22 10:46:45;;;;;;;14.23;4.90;;;20.70;91.50;;;;;;5068680;28;20074;-56
2021/11/22 10:49:34;;;;;;;13.68;3.97;;;20.70;91.50;;;;;;5069823;28;20021;-48
2021/11/22 10:52:16;;;;;;;9.35;3.38;;;20.80;91.50;;;;;;5072036;28;20361;-49
2021/11/22 10:55:20;;;;;;;12.85;3.70;;;20.70;91.40;;;;;;5066943;28;20037;-55
2021/11/22 10:57:49;;;;;;;13.63;3.35;;;20.80;91.40;;;;;;5070237;28;20041;-48
2021/11/22 11:00:25;;;;;;;11.48;3.47;;;20.70;91.30;;;;;;5073290;28;20085;-57
2021/11/22 11:02:56;;;;;;;18.75;4.50;;;20.80;91.30;;;;;;5070680;28;20036;-56
2021/11/22 11:05:27;;;;;;;11.65;3.63;;;20.70;91.30;;;;;;5071258;28;20028;-54
2021/11/22 11:08:06;;;;;;;11.68;4.32;;;20.70;91.30;;;;;;5072668;28;20036;-56
2021/11/22 11:10:35;;;;;;;8.57;3.22;;;20.70;91.20;;;;;;5070854;28;20020;-54
2021/11/22 11:13:05;;;;;;;12.10;3.20;;;20.80;91.30;;;;;;5070840;28;20016;-59
2021/11/22 11:15:33;;;;;;;10.77;3.63;;;20.70;91.30;;;;;;5071160;28;20028;-56
2021/11/22 11:18:01;;;;;;;11.30;4.10;;;20.70;91.30;;;;;;5072540;28;20055;-58
2021/11/22 11:20:29;;;;;;;8.63;3.00;;;20.70;91.20;;;;;;5072545;28;20111;-58
2021/11/22 11:22:58;;;;;;;10.63;3.45;;;20.70;91.20;;;;;;5072017;28;20085;-59
2021/11/22 11:25:28;;;;;;;11.30;3.42;;;20.70;91.20;;;;;;5068941;28;20024;-58
2021/11/22 11:27:55;;;;;;;10.07;3.30;;;20.70;91.20;;;;;;5072522;28;20086;-56
2021/11/22 11:30:23;;;;;;;11.02;3.38;;;20.70;91.10;;;;;;5072446;28;20032;-53
2021/11/22 11:32:53;;;;;;;11.90;3.67;;;20.70;91.10;;;;;;5071671;28;20046;-51
2021/11/22 11:35:22;;;;;;;11.75;3.53;;;20.70;91.20;;;;;;5069785;28;20029;-60
2021/11/22 11:37:58;;;;;;;13.07;3.80;;;20.70;91.20;;;;;;5069051;28;20054;-52
2021/11/22 11:40:36;;;;;;;11.70;3.67;;;20.70;91.20;;;;;;5071904;28;20028;-59
2021/11/22 11:43:30;;;;;;;9.80;3.22;;;20.60;91.30;;;;;;5070110;28;20089;-59
2021/11/22 11:46:20;;;;;;;11.45;3.17;;;20.70;91.10;;;;;;5072336;28;20033;-61
2021/11/22 11:48:56;;;;;;;11.95;3.63;;;20.60;91.10;;;;;;5072101;28;20082;-62
2021/11/22 11:51:48;;;;;;;10.25;3.28;;;20.60;91.10;;;;;;5068904;28;20371;-55
2021/11/22 11:54:23;;;;;;;11.85;3.65;;;20.60;91.00;;;;;;5061654;28;20055;-57
2021/11/22 11:57:05;;;;;;;12.27;3.38;;;20.60;91.00;;;;;;5073177;28;20036;-60
2021/11/22 11:59:45;;;;;;;10.52;3.50;;;20.60;91.00;;;;;;5074319;28;20027;-61
2021/11/22 12:02:30;;;;;;;8.57;3.05;;;20.60;91.00;;;;;;5073126;28;20094;-55
2021/11/22 12:04:57;;;;;;;12.52;3.15;;;20.60;91.00;;;;;;5074464;28;20021;-60
2021/11/22 12:07:36;;;;;;;8.75;3.22;;;20.60;91.00;;;;;;5074473;28;20029;-63
2021/11/22 12:10:18;;;;;;;11.20;3.78;;;20.60;91.00;;;;;;5073913;28;20348;-61
2021/11/22 12:13:10;;;;;;;10.80;3.72;;;20.60;91.10;;;;;;5073962;28;20021;-63
2021/11/22 12:15:52;;;;;;;16.52;3.85;;;20.60;91.10;;;;;;5074245;28;20025;-61
2021/11/22 12:18:32;;;;;;;7.38;3.33;;;20.60;91.10;;;;;;5071444;28;20558;-62
2021/11/22 12:21:20;;;;;;;13.15;3.40;;;20.50;91.10;;;;;;5071821;28;20416;-60
2021/11/22 12:23:53;;;;;;;9.73;3.03;;;20.50;91.30;;;;;;5073642;28;20028;-62
2021/11/22 12:26:36;;;;;;;7.28;2.20;;;20.50;91.20;;;;;;5072880;28;20115;-62
2021/11/22 12:29:07;;;;;;;15.13;3.08;;;20.50;91.20;;;;;;5074460;28;20078;-59
2021/11/22 12:31:49;;;;;;;7.57;2.58;;;20.50;91.20;;;;;;5074368;28;20096;-61
2021/11/22 12:34:16;;;;;;;10.45;2.90;;;20.50;91.20;;;;;;5074276;28;20050;-62
2021/11/22 12:36:46;;;;;;;12.15;3.55;;;20.50;91.20;;;;;;5074012;28;20065;-58
2021/11/22 12:39:23;;;;;;;13.77;3.03;;;20.40;91.30;;;;;;5073889;28;20107;-56
2021/11/22 12:41:54;;;;;;;11.60;3.25;;;20.40;91.30;;;;;;5072454;28;20118;-63
2021/11/22 12:44:23;;;;;;;12.65;2.78;;;20.40;91.30;;;;;;5073795;28;20155;-58
2021/11/22 12:46:56;;;;;;;9.35;3.30;;;20.40;91.30;;;;;;5062418;28;20016;-54
2021/11/22 12:49:31;;;;;;;13.23;3.35;;;20.40;91.40;;;;;;5070666;28;20041;-54
2021/11/22 12:52:18;;;;;;;9.07;3.20;;;20.40;91.30;;;;;;5069845;28;20021;-58
2021/11/22 12:54:54;;;;;;;10.35;3.03;;;20.40;91.40;;;;;;5069110;28;20055;-56